createdAt,value
2022-11-03T00:00:02.190Z,1023.9
2022-11-03T00:01:01.887Z,1023.9
2022-11-03T00:02:02.369Z,1023.9
2022-11-03T00:03:02.748Z,1023.9
2022-11-03T00:04:02.655Z,1023.8
2022-11-03T00:05:02.706Z,1023.9
2022-11-03T00:06:02.539Z,1023.8
2022-11-03T00:07:02.502Z,1023.8
2022-11-03T00:08:02.696Z,1023.8
2022-11-03T00:09:02.548Z,1023.8
2022-11-03T00:10:02.560Z,1023.9
2022-11-03T00:11:02.514Z,1023.8
2022-11-03T00:12:02.334Z,1023.8
2022-11-03T00:13:03.513Z,1023.8
2022-11-03T00:14:02.542Z,1023.9
2022-11-03T00:15:02.355Z,1023.9
2022-11-03T00:16:02.083Z,1023.9
2022-11-03T00:17:02.102Z,1023.9
2022-11-03T00:18:01.976Z,1023.9
2022-11-03T00:19:01.999Z,1023.9
2022-11-03T00:20:01.807Z,1024
2022-11-03T00:21:01.929Z,1023.9
2022-11-03T00:22:02.832Z,1023.9
2022-11-03T00:23:02.919Z,1024
2022-11-03T00:24:01.936Z,1023.9
2022-11-03T00:25:02.853Z,1023.9
2022-11-03T00:26:02.713Z,1023.9
2022-11-03T00:27:02.732Z,1024
2022-11-03T00:28:04.127Z,1024
2022-11-03T00:29:01.905Z,1024
2022-11-03T00:30:02.066Z,1023.9
2022-11-03T00:31:02.747Z,1024
2022-11-03T00:32:02.593Z,1023.9
2022-11-03T00:33:03.024Z,1024
2022-11-03T00:34:01.896Z,1024
2022-11-03T00:35:01.877Z,1024
2022-11-03T00:36:02.779Z,1024
2022-11-03T00:37:02.643Z,1024
2022-11-03T00:38:02.642Z,1024
2022-11-03T00:39:02.506Z,1024
2022-11-03T00:40:02.542Z,1024.1
2022-11-03T00:41:02.488Z,1024
2022-11-03T00:42:02.395Z,1024.1
2022-11-03T00:43:02.465Z,1024
2022-11-03T00:44:02.563Z,1024
2022-11-03T00:45:02.465Z,1024
2022-11-03T00:46:02.045Z,1024
2022-11-03T00:47:02.055Z,1024
2022-11-03T00:48:01.902Z,1024
2022-11-03T00:49:01.931Z,1024
2022-11-03T00:50:01.800Z,1024
2022-11-03T00:51:02.783Z,1024.1
2022-11-03T00:52:02.636Z,1024
2022-11-03T00:53:03.152Z,1024.1
2022-11-03T00:54:02.030Z,1024.1
2022-11-03T00:55:02.050Z,1024.1
2022-11-03T00:56:01.865Z,1024
2022-11-03T00:57:01.894Z,1024.1
2022-11-03T00:58:02.841Z,1024.1
2022-11-03T00:59:02.667Z,1024
2022-11-03T01:00:02.710Z,1024
2022-11-03T01:01:02.502Z,1024
2022-11-03T01:02:02.883Z,1024.1
2022-11-03T01:03:01.783Z,1024
2022-11-03T01:04:02.806Z,1024
2022-11-03T01:05:02.679Z,1024
2022-11-03T01:06:02.658Z,1024
2022-11-03T01:07:02.541Z,1024
2022-11-03T01:08:02.596Z,1024
2022-11-03T01:09:02.503Z,1024
2022-11-03T01:10:02.321Z,1024
2022-11-03T01:11:02.294Z,1024.1
2022-11-03T01:12:02.150Z,1024.1
2022-11-03T01:13:02.236Z,1024.1
2022-11-03T01:14:02.069Z,1024.1
2022-11-03T01:15:02.126Z,1024
2022-11-03T01:16:01.827Z,1024
2022-11-03T01:17:01.898Z,1024
2022-11-03T01:18:02.874Z,1024
2022-11-03T01:19:02.712Z,1024
2022-11-03T01:20:02.713Z,1024
2022-11-03T01:21:02.562Z,1024
2022-11-03T01:22:11.534Z,1024
2022-11-03T01:23:02.455Z,1024.1
2022-11-03T01:24:02.330Z,1024
2022-11-03T01:25:02.301Z,1024
2022-11-03T01:26:02.324Z,1024
2022-11-03T01:27:02.159Z,1024
2022-11-03T01:28:02.330Z,1024.1
2022-11-03T01:29:02.094Z,1024
2022-11-03T01:30:02.107Z,1024.1
2022-11-03T01:31:02.850Z,1024.1
2022-11-03T01:32:02.699Z,1024.1
2022-11-03T01:33:03.163Z,1024.1
2022-11-03T01:34:02.082Z,1024
2022-11-03T01:35:02.137Z,1024
2022-11-03T01:36:01.928Z,1024
2022-11-03T01:37:01.902Z,1024
2022-11-03T01:38:02.821Z,1024
2022-11-03T01:39:02.648Z,1024
2022-11-03T01:40:02.723Z,1024
2022-11-03T01:41:02.656Z,1024
2022-11-03T01:42:02.534Z,1024
2022-11-03T01:43:02.650Z,1024
2022-11-03T01:44:02.473Z,1024
2022-11-03T01:45:02.541Z,1024
2022-11-03T01:46:02.101Z,1024
2022-11-03T01:47:02.128Z,1024
2022-11-03T01:48:01.932Z,1024
2022-11-03T01:49:01.953Z,1024.1
2022-11-03T01:50:01.772Z,1024.1
2022-11-03T01:51:02.800Z,1024
2022-11-03T01:52:02.676Z,1024
2022-11-03T01:53:02.713Z,1024
2022-11-03T01:54:02.576Z,1023.9
2022-11-03T01:55:02.587Z,1023.9
2022-11-03T01:56:02.549Z,1023.9
2022-11-03T01:57:02.391Z,1024
2022-11-03T01:58:02.436Z,1023.9
2022-11-03T01:59:02.317Z,1024
2022-11-03T02:00:02.144Z,1023.9
2022-11-03T02:01:02.359Z,1024
2022-11-03T02:02:02.786Z,1023.9
2022-11-03T02:03:02.816Z,1023.9
2022-11-03T02:04:02.611Z,1023.9
2022-11-03T02:05:02.662Z,1023.9
2022-11-03T02:06:02.489Z,1023.9
2022-11-03T02:07:02.530Z,1023.9
2022-11-03T02:08:02.660Z,1023.9
2022-11-03T02:09:02.524Z,1023.9
2022-11-03T02:10:02.570Z,1023.8
2022-11-03T02:11:02.438Z,1023.8
2022-11-03T02:12:02.353Z,1023.8
2022-11-03T02:13:02.407Z,1023.8
2022-11-03T02:14:02.287Z,1023.9
2022-11-03T02:15:02.113Z,1023.9
2022-11-03T02:16:01.969Z,1023.8
2022-11-03T02:17:01.985Z,1023.8
2022-11-03T02:18:01.801Z,1023.8
2022-11-03T02:19:02.830Z,1023.8
2022-11-03T02:20:02.717Z,1023.8
2022-11-03T02:21:02.723Z,1023.8
2022-11-03T02:22:02.572Z,1023.9
2022-11-03T02:23:02.613Z,1023.9
2022-11-03T02:24:02.463Z,1023.9
2022-11-03T02:25:02.504Z,1023.9
2022-11-03T02:26:02.567Z,1023.9
2022-11-03T02:27:02.391Z,1023.9
2022-11-03T02:28:02.447Z,1023.8
2022-11-03T02:29:02.413Z,1023.9
2022-11-03T02:30:02.231Z,1023.9
2022-11-03T02:31:02.304Z,1023.8
2022-11-03T02:32:02.191Z,1023.9
2022-11-03T02:33:02.067Z,1023.9
2022-11-03T02:34:02.078Z,1023.8
2022-11-03T02:35:01.852Z,1023.8
2022-11-03T02:36:01.825Z,1023.9
2022-11-03T02:37:02.853Z,1023.9
2022-11-03T02:38:02.681Z,1023.9
2022-11-03T02:39:02.717Z,1023.9
2022-11-03T02:40:02.575Z,1023.8
2022-11-03T02:41:02.676Z,1023.9
2022-11-03T02:42:02.551Z,1023.9
2022-11-03T02:43:02.712Z,1023.9
2022-11-03T02:44:02.672Z,1023.9
2022-11-03T02:45:02.543Z,1023.9
2022-11-03T02:46:02.305Z,1023.9
2022-11-03T02:47:02.363Z,1023.9
2022-11-03T02:48:02.367Z,1023.9
2022-11-03T02:49:02.195Z,1023.9
2022-11-03T02:50:02.372Z,1023.9
2022-11-03T02:51:02.159Z,1023.9
2022-11-03T02:52:02.158Z,1024
2022-11-03T02:53:01.989Z,1023.9
2022-11-03T02:54:01.998Z,1023.9
2022-11-03T02:55:01.755Z,1023.9
2022-11-03T02:56:02.790Z,1023.8
2022-11-03T02:57:02.645Z,1023.8
2022-11-03T02:58:02.698Z,1023.9
2022-11-03T02:59:02.594Z,1023.8
2022-11-03T03:00:02.576Z,1023.8
2022-11-03T03:01:02.518Z,1023.8
2022-11-03T03:02:02.818Z,1023.8
2022-11-03T03:03:03.032Z,1023.8
2022-11-03T03:04:01.984Z,1023.8
2022-11-03T03:05:02.035Z,1023.8
2022-11-03T03:06:01.859Z,1023.8
2022-11-03T03:07:01.885Z,1023.8
2022-11-03T03:08:02.803Z,1023.8
2022-11-03T03:09:02.684Z,1023.9
2022-11-03T03:10:02.751Z,1023.8
2022-11-03T03:11:02.601Z,1023.9
2022-11-03T03:12:02.670Z,1023.9
2022-11-03T03:13:02.504Z,1023.9
2022-11-03T03:14:02.564Z,1023.9
2022-11-03T03:15:02.453Z,1023.9
2022-11-03T03:16:02.043Z,1023.9
2022-11-03T03:17:02.002Z,1023.9
2022-11-03T03:18:01.841Z,1023.9
2022-11-03T03:19:01.883Z,1023.9
2022-11-03T03:20:02.767Z,1023.9
2022-11-03T03:21:02.680Z,1023.9
2022-11-03T03:22:02.719Z,1023.9
2022-11-03T03:23:11.832Z,1024
2022-11-03T03:24:02.700Z,1023.9
2022-11-03T03:25:02.763Z,1023.9
2022-11-03T03:26:02.601Z,1023.9
2022-11-03T03:27:02.687Z,1024
2022-11-03T03:28:02.515Z,1023.9
2022-11-03T03:29:02.595Z,1023.9
2022-11-03T03:30:02.533Z,1023.9
2022-11-03T03:31:02.055Z,1023.9
2022-11-03T03:32:02.053Z,1023.9
2022-11-03T03:33:01.879Z,1024
2022-11-03T03:34:34.379Z,1024
2022-11-03T03:35:01.821Z,1023.9
2022-11-03T03:36:02.834Z,1024
2022-11-03T03:37:02.629Z,1024
2022-11-03T03:38:02.798Z,1024
2022-11-03T03:39:02.664Z,1024
2022-11-03T03:40:02.732Z,1023.9
2022-11-03T03:41:11.112Z,1023.9
2022-11-03T03:42:01.864Z,1023.9
2022-11-03T03:43:01.910Z,1023.9
2022-11-03T03:44:02.843Z,1023.9
2022-11-03T03:45:02.708Z,1023.9
2022-11-03T03:46:02.477Z,1023.9
2022-11-03T03:47:02.516Z,1023.9
2022-11-03T03:48:02.401Z,1023.9
2022-11-03T03:49:02.202Z,1024
2022-11-03T03:50:02.313Z,1023.9
2022-11-03T03:51:02.115Z,1023.9
2022-11-03T03:52:02.169Z,1024
2022-11-03T03:53:01.992Z,1024
2022-11-03T03:54:02.001Z,1023.9
2022-11-03T03:55:01.782Z,1023.9
2022-11-03T03:56:02.836Z,1023.9
2022-11-03T03:57:02.688Z,1023.9
2022-11-03T03:58:02.741Z,1023.9
2022-11-03T03:59:02.594Z,1024
2022-11-03T04:00:02.640Z,1023.9
2022-11-03T04:01:02.391Z,1023.9
2022-11-03T04:02:02.713Z,1023.9
2022-11-03T04:03:02.703Z,1023.9
2022-11-03T04:04:02.517Z,1023.9
2022-11-03T04:05:02.602Z,1023.9
2022-11-03T04:06:02.511Z,1024
2022-11-03T04:07:02.480Z,1024
2022-11-03T04:08:02.371Z,1023.9
2022-11-03T04:09:02.291Z,1023.9
2022-11-03T04:10:02.119Z,1023.9
2022-11-03T04:11:02.187Z,1023.9
2022-11-03T04:12:01.943Z,1023.9
2022-11-03T04:13:01.968Z,1023.9
2022-11-03T04:14:01.794Z,1023.9
2022-11-03T04:15:02.811Z,1023.8
2022-11-03T04:16:02.465Z,1023.8
2022-11-03T04:17:02.541Z,1023.8
2022-11-03T04:18:02.488Z,1023.8
2022-11-03T04:19:02.364Z,1023.9
2022-11-03T04:20:02.400Z,1023.8
2022-11-03T04:21:02.329Z,1023.9
2022-11-03T04:22:02.200Z,1023.9
2022-11-03T04:23:02.223Z,1023.8
2022-11-03T04:24:02.147Z,1023.9
2022-11-03T04:25:02.110Z,1023.8
2022-11-03T04:26:01.904Z,1023.9
2022-11-03T04:27:01.933Z,1023.8
2022-11-03T04:28:02.957Z,1023.8
2022-11-03T04:29:01.803Z,1023.9
2022-11-03T04:30:02.843Z,1023.8
2022-11-03T04:31:02.423Z,1023.8
2022-11-03T04:32:02.504Z,1023.8
2022-11-03T04:33:02.482Z,1023.8
2022-11-03T04:34:02.337Z,1023.8
2022-11-03T04:35:02.345Z,1023.8
2022-11-03T04:36:02.294Z,1023.8
2022-11-03T04:37:02.093Z,1023.7
2022-11-03T04:38:02.155Z,1023.7
2022-11-03T04:39:02.130Z,1023.7
2022-11-03T04:40:02.341Z,1023.7
2022-11-03T04:41:02.457Z,1023.7
2022-11-03T04:42:02.267Z,1023.7
2022-11-03T04:43:02.261Z,1023.7
2022-11-03T04:44:02.120Z,1023.7
2022-11-03T04:45:02.113Z,1023.6
2022-11-03T04:46:01.789Z,1023.7
2022-11-03T04:47:02.802Z,1023.7
2022-11-03T04:48:02.652Z,1023.7
2022-11-03T04:49:02.649Z,1023.7
2022-11-03T04:50:02.585Z,1023.6
2022-11-03T04:51:02.558Z,1023.6
2022-11-03T04:52:02.494Z,1023.7
2022-11-03T04:53:02.363Z,1023.7
2022-11-03T04:54:02.420Z,1023.7
2022-11-03T04:55:02.313Z,1023.6
2022-11-03T04:56:07.911Z,1023.6
2022-11-03T04:57:02.691Z,1023.6
2022-11-03T04:58:02.764Z,1023.6
2022-11-03T04:59:02.592Z,1023.6
2022-11-03T05:00:02.705Z,1023.5
2022-11-03T05:01:02.410Z,1023.6
2022-11-03T05:02:02.925Z,1023.5
2022-11-03T05:03:01.823Z,1023.5
2022-11-03T05:04:02.835Z,1023.5
2022-11-03T05:05:02.649Z,1023.6
2022-11-03T05:06:02.735Z,1023.5
2022-11-03T05:07:02.558Z,1023.5
2022-11-03T05:08:02.608Z,1023.6
2022-11-03T05:09:02.535Z,1023.5
2022-11-03T05:10:02.492Z,1023.5
2022-11-03T05:11:02.360Z,1023.5
2022-11-03T05:12:02.356Z,1023.5
2022-11-03T05:13:02.215Z,1023.5
2022-11-03T05:14:02.436Z,1023.5
2022-11-03T05:15:02.456Z,1023.4
2022-11-03T05:16:02.038Z,1023.4
2022-11-03T05:17:02.076Z,1023.4
2022-11-03T05:18:01.905Z,1023.4
2022-11-03T05:19:01.911Z,1023.4
2022-11-03T05:20:02.846Z,1023.4
2022-11-03T05:21:02.812Z,1023.4
2022-11-03T05:22:02.698Z,1023.4
2022-11-03T05:23:02.613Z,1023.3
2022-11-03T05:24:02.929Z,1023.4
2022-11-03T05:25:02.772Z,1023.4
2022-11-03T05:26:02.839Z,1023.4
2022-11-03T05:27:02.725Z,1023.4
2022-11-03T05:28:02.786Z,1023.4
2022-11-03T05:29:02.636Z,1023.5
2022-11-03T05:30:02.708Z,1023.4
2022-11-03T05:31:02.450Z,1023.5
2022-11-03T05:32:02.477Z,1023.5
2022-11-03T05:33:02.395Z,1023.5
2022-11-03T05:34:02.191Z,1023.5
2022-11-03T05:35:02.208Z,1023.5
2022-11-03T05:36:02.034Z,1023.4
2022-11-03T05:37:02.077Z,1023.5
2022-11-03T05:38:01.913Z,1023.5
2022-11-03T05:39:01.977Z,1023.5
2022-11-03T05:40:01.855Z,1023.5
2022-11-03T05:41:01.894Z,1023.5
2022-11-03T05:42:01.803Z,1023.5
2022-11-03T05:43:02.817Z,1023.5
2022-11-03T05:44:02.754Z,1023.5
2022-11-03T05:45:02.781Z,1023.5
2022-11-03T05:46:02.598Z,1023.5
2022-11-03T05:47:08.659Z,1023.5
2022-11-03T05:48:02.538Z,1023.5
2022-11-03T05:49:02.362Z,1023.6
2022-11-03T05:50:02.443Z,1023.5
2022-11-03T05:51:02.387Z,1023.5
2022-11-03T05:52:02.223Z,1023.5
2022-11-03T05:53:02.228Z,1023.5
2022-11-03T05:54:02.083Z,1023.5
2022-11-03T05:55:02.079Z,1023.5
2022-11-03T05:56:01.900Z,1023.5
2022-11-03T05:57:01.943Z,1023.5
2022-11-03T05:58:01.813Z,1023.5
2022-11-03T05:59:01.935Z,1023.6
2022-11-03T06:00:01.772Z,1023.6
2022-11-03T06:01:01.862Z,1023.5
2022-11-03T06:02:02.527Z,1023.6
2022-11-03T06:03:02.703Z,1023.5
2022-11-03T06:04:02.550Z,1023.6
2022-11-03T06:05:02.600Z,1023.6
2022-11-03T06:06:02.559Z,1023.6
2022-11-03T06:07:02.433Z,1023.6
2022-11-03T06:08:02.491Z,1023.6
2022-11-03T06:09:02.398Z,1023.6
2022-11-03T06:10:02.244Z,1023.6
2022-11-03T06:11:02.276Z,1023.6
2022-11-03T06:12:02.104Z,1023.7
2022-11-03T06:13:02.128Z,1023.6
2022-11-03T06:14:01.985Z,1023.6
2022-11-03T06:15:02.098Z,1023.6
2022-11-03T06:16:02.794Z,1023.6
2022-11-03T06:17:02.675Z,1023.6
2022-11-03T06:18:02.773Z,1023.6
2022-11-03T06:19:02.316Z,1023.5
2022-11-03T06:20:02.259Z,1023.6
2022-11-03T06:21:02.099Z,1023.6
2022-11-03T06:22:02.160Z,1023.6
2022-11-03T06:23:01.936Z,1023.6
2022-11-03T06:24:01.960Z,1023.5
2022-11-03T06:25:01.769Z,1023.6
2022-11-03T06:26:02.852Z,1023.6
2022-11-03T06:27:02.704Z,1023.5
2022-11-03T06:28:01.915Z,1023.6
2022-11-03T06:29:01.787Z,1023.6
2022-11-03T06:30:02.989Z,1023.6
2022-11-03T06:31:02.584Z,1023.6
2022-11-03T06:32:02.652Z,1023.6
2022-11-03T06:33:02.525Z,1023.6
2022-11-03T06:34:02.590Z,1023.6
2022-11-03T06:35:02.613Z,1023.7
2022-11-03T06:36:02.529Z,1023.6
2022-11-03T06:37:02.431Z,1023.5
2022-11-03T06:38:02.496Z,1023.6
2022-11-03T06:39:02.308Z,1023.5
2022-11-03T06:40:02.357Z,1023.5
2022-11-03T06:41:02.302Z,1023.5
2022-11-03T06:42:02.243Z,1023.5
2022-11-03T06:43:02.162Z,1023.5
2022-11-03T06:44:02.048Z,1023.5
2022-11-03T06:45:02.029Z,1023.5
2022-11-03T06:46:02.135Z,1023.5
2022-11-03T06:47:02.030Z,1023.5
2022-11-03T06:48:02.036Z,1023.5
2022-11-03T06:49:01.978Z,1023.5
2022-11-03T06:50:01.953Z,1023.5
2022-11-03T06:51:01.897Z,1023.5
2022-11-03T06:52:01.842Z,1023.6
2022-11-03T06:53:01.822Z,1023.6
2022-11-03T06:54:01.858Z,1023.6
2022-11-03T06:55:02.799Z,1023.5
2022-11-03T06:56:02.753Z,1023.6
2022-11-03T06:57:02.708Z,1023.5
2022-11-03T06:58:02.650Z,1023.6
2022-11-03T06:59:02.569Z,1023.6
2022-11-03T07:00:37.753Z,1023.6
2022-11-03T07:01:04.869Z,1023.5
2022-11-03T07:02:03.217Z,1023.5
2022-11-03T07:03:02.116Z,1023.6
2022-11-03T07:04:02.283Z,1023.5
2022-11-03T07:05:02.145Z,1023.6
2022-11-03T07:06:02.218Z,1023.5
2022-11-03T07:07:02.262Z,1023.6
2022-11-03T07:08:02.047Z,1023.6
2022-11-03T07:09:02.168Z,1023.5
2022-11-03T07:10:02.057Z,1023.5
2022-11-03T07:11:02.086Z,1023.5
2022-11-03T07:12:01.873Z,1023.5
2022-11-03T07:13:07.913Z,1023.5
2022-11-03T07:14:01.797Z,1023.5
2022-11-03T07:15:03.121Z,1023.4
2022-11-03T07:16:02.781Z,1023.5
2022-11-03T07:17:02.814Z,1023.5
2022-11-03T07:18:02.730Z,1023.4
2022-11-03T07:19:02.715Z,1023.4
2022-11-03T07:20:02.535Z,1023.5
2022-11-03T07:21:02.520Z,1023.4
2022-11-03T07:22:02.521Z,1023.4
2022-11-03T07:23:02.399Z,1023.4
2022-11-03T07:24:02.430Z,1023.4
2022-11-03T07:25:02.399Z,1023.4
2022-11-03T07:26:02.284Z,1023.3
2022-11-03T07:27:02.337Z,1023.3
2022-11-03T07:28:02.334Z,1023.3
2022-11-03T07:29:02.235Z,1023.3
2022-11-03T07:30:02.300Z,1023.3
2022-11-03T07:31:02.059Z,1023.3
2022-11-03T07:32:02.182Z,1023.3
2022-11-03T07:33:01.955Z,1023.2
2022-11-03T07:34:02.003Z,1023.2
2022-11-03T07:35:01.848Z,1023.3
2022-11-03T07:36:17.481Z,1023.3
2022-11-03T07:37:02.609Z,1023.3
2022-11-03T07:38:02.467Z,1023.3
2022-11-03T07:39:02.497Z,1023.3
2022-11-03T07:40:02.469Z,1023.3
2022-11-03T07:41:02.348Z,1023.2
2022-11-03T07:42:02.437Z,1023.3
2022-11-03T07:43:02.427Z,1023.2
2022-11-03T07:44:02.308Z,1023.2
2022-11-03T07:45:02.351Z,1023.2
2022-11-03T07:46:02.049Z,1023.2
2022-11-03T07:47:02.470Z,1023.1
2022-11-03T07:48:05.331Z,1023.1
2022-11-03T07:49:02.324Z,1023.1
2022-11-03T07:50:02.330Z,1023.1
2022-11-03T07:51:02.327Z,1023
2022-11-03T07:52:02.078Z,1023
2022-11-03T07:53:02.094Z,1023
2022-11-03T07:54:01.905Z,1023
2022-11-03T07:55:01.977Z,1023.1
2022-11-03T07:56:01.952Z,1023
2022-11-03T07:57:01.899Z,1023
2022-11-03T07:58:02.848Z,1023
2022-11-03T07:59:02.690Z,1023
2022-11-03T08:00:10.982Z,1022.9
2022-11-03T08:01:02.551Z,1022.9
2022-11-03T08:02:03.054Z,1022.9
2022-11-03T08:03:01.913Z,1022.9
2022-11-03T08:04:01.833Z,1022.9
2022-11-03T08:05:01.789Z,1022.9
2022-11-03T08:06:10.580Z,1022.9
2022-11-03T08:07:02.511Z,1022.9
2022-11-03T08:08:02.426Z,1022.9
2022-11-03T08:09:02.373Z,1022.9
2022-11-03T08:10:02.360Z,1022.9
2022-11-03T08:11:02.580Z,1022.9
2022-11-03T08:12:02.471Z,1022.9
2022-11-03T08:13:02.406Z,1022.8
2022-11-03T08:14:02.375Z,1022.8
2022-11-03T08:15:02.190Z,1022.9
2022-11-03T08:16:02.053Z,1022.9
2022-11-03T08:17:02.105Z,1022.9
2022-11-03T08:18:01.885Z,1022.8
2022-11-03T08:19:01.797Z,1022.8
2022-11-03T08:20:02.811Z,1022.8
2022-11-03T08:21:02.714Z,1022.8
2022-11-03T08:22:02.678Z,1022.8
2022-11-03T08:23:26.931Z,1022.8
2022-11-03T08:24:01.762Z,1022.8
2022-11-03T08:25:02.747Z,1022.8
2022-11-03T08:26:02.677Z,1022.7
2022-11-03T08:27:02.641Z,1022.7
2022-11-03T08:28:02.562Z,1022.6
2022-11-03T08:29:02.492Z,1022.6
2022-11-03T08:30:02.425Z,1022.7
2022-11-03T08:31:09.391Z,1022.7
2022-11-03T08:32:01.831Z,1022.6
2022-11-03T08:33:02.751Z,1022.7
2022-11-03T08:34:02.816Z,1022.7
2022-11-03T08:35:02.775Z,1022.7
2022-11-03T08:36:02.994Z,1022.6
2022-11-03T08:37:01.877Z,1022.6
2022-11-03T08:38:01.823Z,1022.6
2022-11-03T08:39:02.763Z,1022.6
2022-11-03T08:40:02.706Z,1022.6
2022-11-03T08:41:02.755Z,1022.6
2022-11-03T08:42:02.728Z,1022.6
2022-11-03T08:43:01.826Z,1022.5
2022-11-03T08:44:01.786Z,1022.5
2022-11-03T08:45:02.814Z,1022.5
2022-11-03T08:46:18.430Z,1022.5
2022-11-03T08:47:02.400Z,1022.5
2022-11-03T08:48:02.370Z,1022.5
2022-11-03T08:49:02.349Z,1022.5
2022-11-03T08:50:02.326Z,1022.5
2022-11-03T08:51:02.256Z,1022.5
2022-11-03T08:52:02.230Z,1022.5
2022-11-03T08:53:02.167Z,1022.5
2022-11-03T08:54:02.171Z,1022.4
2022-11-03T08:55:02.123Z,1022.5
2022-11-03T08:56:02.004Z,1022.5
2022-11-03T08:57:01.946Z,1022.4
2022-11-03T08:58:01.885Z,1022.4
2022-11-03T08:59:01.837Z,1022.3
2022-11-03T09:00:01.795Z,1022.3
2022-11-03T09:01:01.950Z,1022.3
2022-11-03T09:02:02.205Z,1022.4
2022-11-03T09:03:02.132Z,1022.3
2022-11-03T09:04:02.412Z,1022.4
2022-11-03T09:05:02.271Z,1022.3
2022-11-03T09:06:02.278Z,1022.3
2022-11-03T09:07:02.235Z,1022.3
2022-11-03T09:11:02.131Z,1022.3
2022-11-03T09:12:02.076Z,1022.3
2022-11-03T09:13:01.993Z,1022.3
2022-11-03T09:14:01.938Z,1022.2
2022-11-03T09:15:01.900Z,1022.3
2022-11-03T09:16:01.943Z,1022.3
2022-11-03T09:18:01.833Z,1022.2
2022-11-03T09:19:01.842Z,1022.2
2022-11-03T09:20:02.777Z,1022.2
2022-11-03T09:21:02.756Z,1022.2
2022-11-03T09:22:02.740Z,1022.3
2022-11-03T09:23:02.726Z,1022.3
2022-11-03T09:24:02.663Z,1022.2
2022-11-03T09:25:02.640Z,1022.2
2022-11-03T09:26:02.583Z,1022.2
2022-11-03T09:27:03.098Z,1022.2
2022-11-03T09:28:01.899Z,1022.2
2022-11-03T09:29:01.845Z,1022.2
2022-11-03T09:30:14.770Z,1022.2
2022-11-03T09:31:01.913Z,1022.2
2022-11-03T09:32:01.878Z,1022.2
2022-11-03T09:33:01.830Z,1022.1
2022-11-03T09:34:02.787Z,1022.2
2022-11-03T09:35:02.739Z,1022.2
2022-11-03T09:36:02.702Z,1022.2
2022-11-03T09:37:02.645Z,1022.2
2022-11-03T09:38:02.616Z,1022.2
2022-11-03T09:39:02.600Z,1022.1
2022-11-03T09:40:02.525Z,1022.1
2022-11-03T09:41:03.049Z,1022.1
2022-11-03T09:42:02.588Z,1022.1
2022-11-03T09:43:02.430Z,1022.1
2022-11-03T09:44:02.443Z,1022.1
2022-11-03T09:45:02.470Z,1022.1
2022-11-03T09:46:02.654Z,1022.1
2022-11-03T09:47:02.677Z,1022.1
2022-11-03T09:48:02.662Z,1022.1
2022-11-03T09:49:02.592Z,1022
2022-11-03T09:50:02.651Z,1021.9
2022-11-03T09:51:02.587Z,1022
2022-11-03T09:52:02.577Z,1021.9
2022-11-03T09:53:02.559Z,1021.9
2022-11-03T09:54:02.581Z,1021.9
2022-11-03T09:55:02.533Z,1021.9
2022-11-03T09:56:02.444Z,1021.8
2022-11-03T09:57:02.395Z,1021.8
2022-11-03T09:58:02.363Z,1021.8
2022-11-03T09:59:02.344Z,1021.8
2022-11-03T10:00:02.264Z,1021.8
2022-11-03T10:01:02.695Z,1021.7
2022-11-03T10:02:03.192Z,1021.8
2022-11-03T10:03:02.168Z,1021.8
2022-11-03T10:04:01.944Z,1021.7
2022-11-03T10:05:11.483Z,1021.7
2022-11-03T10:06:02.339Z,1021.7
2022-11-03T10:07:02.258Z,1021.6
2022-11-03T10:08:02.184Z,1021.7
2022-11-03T10:09:02.167Z,1021.6
2022-11-03T10:10:02.093Z,1021.6
2022-11-03T10:11:02.044Z,1021.6
2022-11-03T10:12:01.919Z,1021.6
2022-11-03T10:13:01.822Z,1021.5
2022-11-03T10:14:01.770Z,1021.5
2022-11-03T10:15:02.877Z,1021.5
2022-11-03T10:16:01.878Z,1021.5
2022-11-03T10:17:01.834Z,1021.5
2022-11-03T10:18:02.777Z,1021.4
2022-11-03T10:19:02.689Z,1021.4
2022-11-03T10:20:02.634Z,1021.5
2022-11-03T10:21:02.620Z,1021.4
2022-11-03T10:22:02.569Z,1021.4
2022-11-03T10:23:02.579Z,1021.4
2022-11-03T10:24:02.513Z,1021.3
2022-11-03T10:25:02.477Z,1021.3
2022-11-03T10:26:02.495Z,1021.3
2022-11-03T10:27:02.419Z,1021.3
2022-11-03T10:28:02.437Z,1021.3
2022-11-03T10:29:02.558Z,1021.3
2022-11-03T10:30:02.372Z,1021.3
2022-11-03T10:31:14.117Z,1021.3
2022-11-03T10:32:01.872Z,1021.2
2022-11-03T10:33:01.806Z,1021.2
2022-11-03T10:34:02.787Z,1021.2
2022-11-03T10:35:02.729Z,1021.2
2022-11-03T10:36:03.177Z,1021.3
2022-11-03T10:37:01.911Z,1021.2
2022-11-03T10:38:01.838Z,1021.2
2022-11-03T10:39:01.908Z,1021.2
2022-11-03T10:40:02.730Z,1021.2
2022-11-03T10:41:02.699Z,1021.3
2022-11-03T10:42:02.710Z,1021.2
2022-11-03T10:43:02.590Z,1021.2
2022-11-03T10:44:02.525Z,1021.1
2022-11-03T10:45:02.511Z,1021.1
2022-11-03T10:46:02.405Z,1021.1
2022-11-03T10:47:02.460Z,1021.1
2022-11-03T10:48:02.284Z,1021
2022-11-03T10:49:02.164Z,1021
2022-11-03T10:50:02.077Z,1020.9
2022-11-03T10:51:02.002Z,1020.9
2022-11-03T10:52:01.899Z,1020.8
2022-11-03T10:53:01.874Z,1020.8
2022-11-03T10:54:01.765Z,1020.8
2022-11-03T10:55:02.720Z,1020.8
2022-11-03T10:56:02.644Z,1020.8
2022-11-03T10:57:02.631Z,1020.7
2022-11-03T10:58:02.725Z,1020.8
2022-11-03T10:59:02.668Z,1020.8
2022-11-03T11:00:02.638Z,1020.8
2022-11-03T11:01:02.076Z,1020.8
2022-11-03T11:02:02.540Z,1020.8
2022-11-03T11:03:02.442Z,1020.7
2022-11-03T11:04:02.718Z,1020.7
2022-11-03T11:05:02.606Z,1020.7
2022-11-03T11:06:02.506Z,1020.7
2022-11-03T11:07:02.521Z,1020.6
2022-11-03T11:08:02.696Z,1020.6
2022-11-03T11:09:02.555Z,1020.6
2022-11-03T11:10:02.517Z,1020.6
2022-11-03T11:11:02.442Z,1020.6
2022-11-03T11:12:02.422Z,1020.6
2022-11-03T11:13:02.324Z,1020.6
2022-11-03T11:14:02.314Z,1020.5
2022-11-03T11:15:02.205Z,1020.5
2022-11-03T11:16:02.411Z,1020.5
2022-11-03T11:17:02.385Z,1020.5
2022-11-03T11:18:02.233Z,1020.5
2022-11-03T11:19:02.209Z,1020.5
2022-11-03T11:20:02.132Z,1020.4
2022-11-03T11:21:02.015Z,1020.4
2022-11-03T11:22:02.077Z,1020.3
2022-11-03T11:23:01.903Z,1020.3
2022-11-03T11:24:02.504Z,1020.3
2022-11-03T11:25:02.457Z,1020.3
2022-11-03T11:26:02.407Z,1020.3
2022-11-03T11:27:02.381Z,1020.3
2022-11-03T11:28:02.268Z,1020.3
2022-11-03T11:29:02.226Z,1020.3
2022-11-03T11:30:02.154Z,1020.2
2022-11-03T11:31:02.281Z,1020.2
2022-11-03T11:32:02.305Z,1020.2
2022-11-03T11:33:02.085Z,1020.1
2022-11-03T11:34:01.994Z,1020.2
2022-11-03T11:35:02.142Z,1020.1
2022-11-03T11:36:01.978Z,1020.1
2022-11-03T11:37:01.999Z,1020.1
2022-11-03T11:38:01.857Z,1020.1
2022-11-03T11:39:01.795Z,1020.1
2022-11-03T11:40:02.753Z,1020.1
2022-11-03T11:41:02.647Z,1020.1
2022-11-03T11:42:02.609Z,1020.2
2022-11-03T11:43:02.501Z,1020.1
2022-11-03T11:44:02.475Z,1020.1
2022-11-03T11:45:02.409Z,1020.1
2022-11-03T11:46:02.559Z,1020
2022-11-03T11:47:02.533Z,1020.1
2022-11-03T11:48:02.494Z,1020.1
2022-11-03T11:49:02.383Z,1020
2022-11-03T11:50:02.358Z,1020
2022-11-03T11:51:02.345Z,1020
2022-11-03T11:52:02.246Z,1020
2022-11-03T11:53:02.128Z,1020
2022-11-03T11:54:18.847Z,1020
2022-11-03T11:55:02.761Z,1019.8
2022-11-03T11:56:02.678Z,1019.8
2022-11-03T11:57:02.720Z,1019.8
2022-11-03T11:58:02.581Z,1019.9
2022-11-03T11:59:02.520Z,1019.8
2022-11-03T12:00:02.496Z,1019.8
2022-11-03T12:01:02.656Z,1019.8
2022-11-03T12:02:02.863Z,1019.8
2022-11-03T12:03:02.969Z,1019.7
2022-11-03T12:04:02.328Z,1019.7
2022-11-03T12:05:02.235Z,1019.7
2022-11-03T12:06:02.263Z,1019.7
2022-11-03T12:07:02.119Z,1019.7
2022-11-03T12:08:02.089Z,1019.7
2022-11-03T12:09:01.949Z,1019.6
2022-11-03T12:10:01.865Z,1019.6
2022-11-03T12:11:02.187Z,1019.6
2022-11-03T12:12:09.254Z,1019.5
2022-11-03T12:13:02.053Z,1019.5
2022-11-03T12:14:01.962Z,1019.5
2022-11-03T12:15:01.867Z,1019.6
2022-11-03T12:16:02.177Z,1019.5
2022-11-03T12:17:02.095Z,1019.5
2022-11-03T12:18:02.062Z,1019.5
2022-11-03T12:19:01.966Z,1019.5
2022-11-03T12:20:01.937Z,1019.5
2022-11-03T12:21:02.777Z,1019.5
2022-11-03T12:22:01.913Z,1019.4
2022-11-03T12:23:02.791Z,1019.5
2022-11-03T12:24:02.711Z,1019.4
2022-11-03T12:25:02.683Z,1019.3
2022-11-03T12:26:02.960Z,1019.4
2022-11-03T12:27:01.869Z,1019.3
2022-11-03T12:28:02.803Z,1019.3
2022-11-03T12:29:02.691Z,1019.3
2022-11-03T12:30:02.740Z,1019.3
2022-11-03T12:31:01.945Z,1019.2
2022-11-03T12:32:01.865Z,1019.2
2022-11-03T12:33:02.783Z,1019.2
2022-11-03T12:34:02.712Z,1019.2
2022-11-03T12:35:02.797Z,1019.2
2022-11-03T12:36:02.661Z,1019.1
2022-11-03T12:37:02.652Z,1019.1
2022-11-03T12:38:02.556Z,1019.1